sensor_id;sensor_type;location;lat;lon;timestamp;P1;durP1;ratioP1;P2;durP2;ratioP2
48487;SDS011;34289;48.572;13.378;2022-12-31T00:01:13;17.92;;;10.77;;
48487;SDS011;34289;48.572;13.378;2022-12-31T00:03:40;15.10;;;11.82;;
48487;SDS011;34289;48.572;13.378;2022-12-31T00:08:50;15.18;;;10.93;;
48487;SDS011;34289;48.572;13.378;2022-12-31T00:11:17;17.02;;;11.30;;
48487;SDS011;34289;48.572;13.378;2022-12-31T00:13:43;16.38;;;11.88;;
48487;SDS011;34289;48.572;13.378;2022-12-31T00:16:14;16.25;;;10.73;;
48487;SDS011;34289;48.572;13.378;2022-12-31T00:18:46;20.58;;;12.50;;
48487;SDS011;34289;48.572;13.378;2022-12-31T00:21:14;15.60;;;11.35;;
48487;SDS011;34289;48.572;13.378;2022-12-31T00:23:41;17.33;;;11.43;;
48487;SDS011;34289;48.572;13.378;2022-12-31T00:26:09;15.40;;;11.45;;
48487;SDS011;34289;48.572;13.378;2022-12-31T00:28:40;13.10;;;11.13;;
48487;SDS011;34289;48.572;13.378;2022-12-31T00:31:11;13.55;;;11.02;;
48487;SDS011;34289;48.572;13.378;2022-12-31T00:33:38;13.98;;;11.35;;
48487;SDS011;34289;48.572;13.378;2022-12-31T00:36:05;14.68;;;10.82;;
48487;SDS011;34289;48.572;13.378;2022-12-31T00:38:32;13.48;;;11.18;;
48487;SDS011;34289;48.572;13.378;2022-12-31T00:40:58;16.90;;;12.25;;
48487;SDS011;34289;48.572;13.378;2022-12-31T00:43:23;15.85;;;12.05;;
48487;SDS011;34289;48.572;13.378;2022-12-31T00:45:49;14.45;;;11.40;;
48487;SDS011;34289;48.572;13.378;2022-12-31T00:48:15;16.40;;;11.32;;
48487;SDS011;34289;48.572;13.378;2022-12-31T00:50:40;15.30;;;11.65;;
48487;SDS011;34289;48.572;13.378;2022-12-31T00:53:06;17.33;;;12.32;;
48487;SDS011;34289;48.572;13.378;2022-12-31T00:55:31;15.75;;;10.98;;
48487;SDS011;34289;48.572;13.378;2022-12-31T00:57:58;18.52;;;13.27;;
48487;SDS011;34289;48.572;13.378;2022-12-31T01:00:24;16.75;;;11.35;;
48487;SDS011;34289;48.572;13.378;2022-12-31T01:02:49;17.85;;;11.80;;
48487;SDS011;34289;48.572;13.378;2022-12-31T01:05:17;14.93;;;11.60;;
48487;SDS011;34289;48.572;13.378;2022-12-31T01:07:43;21.85;;;12.07;;
48487;SDS011;34289;48.572;13.378;2022-12-31T01:10:09;15.07;;;11.60;;
48487;SDS011;34289;48.572;13.378;2022-12-31T01:12:34;21.17;;;11.80;;
48487;SDS011;34289;48.572;13.378;2022-12-31T01:15:00;14.40;;;11.50;;
48487;SDS011;34289;48.572;13.378;2022-12-31T01:17:26;16.27;;;11.90;;
48487;SDS011;34289;48.572;13.378;2022-12-31T01:19:52;16.73;;;11.10;;
48487;SDS011;34289;48.572;13.378;2022-12-31T01:22:17;15.18;;;11.20;;
48487;SDS011;34289;48.572;13.378;2022-12-31T01:24:43;17.50;;;11.45;;
48487;SDS011;34289;48.572;13.378;2022-12-31T01:27:08;17.88;;;11.15;;
48487;SDS011;34289;48.572;13.378;2022-12-31T01:29:34;12.23;;;10.65;;
48487;SDS011;34289;48.572;13.378;2022-12-31T01:32:00;17.88;;;11.00;;
48487;SDS011;34289;48.572;13.378;2022-12-31T01:34:25;18.23;;;11.48;;
48487;SDS011;34289;48.572;13.378;2022-12-31T01:36:51;13.77;;;10.85;;
48487;SDS011;34289;48.572;13.378;2022-12-31T01:39:17;13.15;;;10.23;;
48487;SDS011;34289;48.572;13.378;2022-12-31T01:41:43;17.35;;;11.82;;
48487;SDS011;34289;48.572;13.378;2022-12-31T01:46:39;15.45;;;12.20;;
48487;SDS011;34289;48.572;13.378;2022-12-31T01:49:11;16.48;;;12.70;;
48487;SDS011;34289;48.572;13.378;2022-12-31T01:51:41;17.45;;;11.98;;
48487;SDS011;34289;48.572;13.378;2022-12-31T01:54:09;18.10;;;12.05;;
48487;SDS011;34289;48.572;13.378;2022-12-31T01:56:39;16.58;;;11.23;;
48487;SDS011;34289;48.572;13.378;2022-12-31T01:59:07;16.70;;;11.48;;
48487;SDS011;34289;48.572;13.378;2022-12-31T02:01:35;16.58;;;11.75;;
48487;SDS011;34289;48.572;13.378;2022-12-31T02:04:08;15.68;;;11.60;;
48487;SDS011;34289;48.572;13.378;2022-12-31T02:06:38;15.50;;;11.15;;
48487;SDS011;34289;48.572;13.378;2022-12-31T02:09:06;16.85;;;11.68;;
48487;SDS011;34289;48.572;13.378;2022-12-31T02:11:33;15.15;;;12.40;;
48487;SDS011;34289;48.572;13.378;2022-12-31T02:14:14;16.77;;;12.15;;
48487;SDS011;34289;48.572;13.378;2022-12-31T02:24:26;15.43;;;10.85;;
48487;SDS011;34289;48.572;13.378;2022-12-31T02:30:10;16.15;;;11.77;;
48487;SDS011;34289;48.572;13.378;2022-12-31T02:35:22;19.20;;;12.30;;
48487;SDS011;34289;48.572;13.378;2022-12-31T02:37:53;21.75;;;12.98;;
48487;SDS011;34289;48.572;13.378;2022-12-31T02:42:50;18.05;;;11.18;;
48487;SDS011;34289;48.572;13.378;2022-12-31T02:45:17;17.90;;;11.90;;
48487;SDS011;34289;48.572;13.378;2022-12-31T02:50:45;19.60;;;13.07;;
48487;SDS011;34289;48.572;13.378;2022-12-31T03:01:46;22.77;;;17.00;;
48487;SDS011;34289;48.572;13.378;2022-12-31T03:04:36;19.95;;;14.73;;
48487;SDS011;34289;48.572;13.378;2022-12-31T03:07:05;21.45;;;15.18;;
48487;SDS011;34289;48.572;13.378;2022-12-31T03:09:34;17.77;;;13.25;;
48487;SDS011;34289;48.572;13.378;2022-12-31T03:12:02;17.55;;;13.90;;
48487;SDS011;34289;48.572;13.378;2022-12-31T03:14:49;22.83;;;13.95;;
48487;SDS011;34289;48.572;13.378;2022-12-31T03:17:15;17.42;;;13.70;;
48487;SDS011;34289;48.572;13.378;2022-12-31T03:19:40;17.45;;;12.77;;
48487;SDS011;34289;48.572;13.378;2022-12-31T03:22:25;20.10;;;13.55;;
48487;SDS011;34289;48.572;13.378;2022-12-31T03:27:41;16.17;;;13.57;;
48487;SDS011;34289;48.572;13.378;2022-12-31T03:30:07;21.63;;;14.40;;
48487;SDS011;34289;48.572;13.378;2022-12-31T03:32:34;19.63;;;14.77;;
48487;SDS011;34289;48.572;13.378;2022-12-31T03:34:59;17.92;;;14.13;;
48487;SDS011;34289;48.572;13.378;2022-12-31T03:37:25;19.23;;;13.63;;
48487;SDS011;34289;48.572;13.378;2022-12-31T03:39:50;21.77;;;16.40;;
48487;SDS011;34289;48.572;13.378;2022-12-31T03:42:16;23.17;;;16.63;;
48487;SDS011;34289;48.572;13.378;2022-12-31T03:44:41;23.02;;;17.50;;
48487;SDS011;34289;48.572;13.378;2022-12-31T03:47:07;25.00;;;16.33;;
48487;SDS011;34289;48.572;13.378;2022-12-31T03:49:33;23.23;;;18.15;;
48487;SDS011;34289;48.572;13.378;2022-12-31T03:51:58;23.95;;;16.35;;
48487;SDS011;34289;48.572;13.378;2022-12-31T03:54:24;23.10;;;17.05;;
48487;SDS011;34289;48.572;13.378;2022-12-31T03:56:49;25.15;;;18.17;;
48487;SDS011;34289;48.572;13.378;2022-12-31T03:59:15;22.55;;;16.73;;
48487;SDS011;34289;48.572;13.378;2022-12-31T04:01:40;22.02;;;16.05;;
48487;SDS011;34289;48.572;13.378;2022-12-31T04:04:06;20.20;;;15.32;;
48487;SDS011;34289;48.572;13.378;2022-12-31T04:06:31;18.52;;;13.25;;
48487;SDS011;34289;48.572;13.378;2022-12-31T04:08:57;21.77;;;14.52;;
48487;SDS011;34289;48.572;13.378;2022-12-31T04:11:23;18.17;;;13.05;;
48487;SDS011;34289;48.572;13.378;2022-12-31T04:13:48;18.30;;;14.43;;
48487;SDS011;34289;48.572;13.378;2022-12-31T04:16:14;16.75;;;13.43;;
48487;SDS011;34289;48.572;13.378;2022-12-31T04:18:39;19.40;;;14.43;;
48487;SDS011;34289;48.572;13.378;2022-12-31T04:21:05;17.98;;;14.10;;
48487;SDS011;34289;48.572;13.378;2022-12-31T04:23:31;22.08;;;13.98;;
48487;SDS011;34289;48.572;13.378;2022-12-31T04:25:56;21.10;;;13.35;;
48487;SDS011;34289;48.572;13.378;2022-12-31T04:28:22;16.80;;;13.95;;
48487;SDS011;34289;48.572;13.378;2022-12-31T04:30:47;22.13;;;13.82;;
48487;SDS011;34289;48.572;13.378;2022-12-31T04:33:13;20.52;;;14.20;;
48487;SDS011;34289;48.572;13.378;2022-12-31T04:35:39;16.55;;;12.77;;
48487;SDS011;34289;48.572;13.378;2022-12-31T04:38:04;19.58;;;13.35;;
48487;SDS011;34289;48.572;13.378;2022-12-31T04:40:30;18.48;;;13.32;;
48487;SDS011;34289;48.572;13.378;2022-12-31T04:42:56;19.45;;;11.70;;
48487;SDS011;34289;48.572;13.378;2022-12-31T04:45:22;16.95;;;13.30;;
48487;SDS011;34289;48.572;13.378;2022-12-31T04:47:47;18.92;;;12.75;;
48487;SDS011;34289;48.572;13.378;2022-12-31T04:50:13;19.00;;;13.00;;
48487;SDS011;34289;48.572;13.378;2022-12-31T04:52:38;18.05;;;14.00;;
48487;SDS011;34289;48.572;13.378;2022-12-31T04:55:04;18.80;;;14.70;;
48487;SDS011;34289;48.572;13.378;2022-12-31T04:57:30;20.73;;;14.55;;
48487;SDS011;34289;48.572;13.378;2022-12-31T04:59:55;20.13;;;14.63;;
48487;SDS011;34289;48.572;13.378;2022-12-31T05:02:21;22.45;;;14.65;;
48487;SDS011;34289;48.572;13.378;2022-12-31T05:04:47;16.88;;;12.20;;
48487;SDS011;34289;48.572;13.378;2022-12-31T05:07:12;17.13;;;12.63;;
48487;SDS011;34289;48.572;13.378;2022-12-31T05:09:38;15.68;;;12.98;;
48487;SDS011;34289;48.572;13.378;2022-12-31T05:12:03;17.73;;;13.48;;
48487;SDS011;34289;48.572;13.378;2022-12-31T05:14:29;15.15;;;12.15;;
48487;SDS011;34289;48.572;13.378;2022-12-31T05:16:55;16.05;;;11.63;;
48487;SDS011;34289;48.572;13.378;2022-12-31T05:19:22;15.93;;;12.60;;
48487;SDS011;34289;48.572;13.378;2022-12-31T05:21:47;15.63;;;11.98;;
48487;SDS011;34289;48.572;13.378;2022-12-31T05:24:33;12.88;;;10.85;;
48487;SDS011;34289;48.572;13.378;2022-12-31T05:26:59;18.48;;;11.82;;
48487;SDS011;34289;48.572;13.378;2022-12-31T05:29:24;13.85;;;11.73;;
48487;SDS011;34289;48.572;13.378;2022-12-31T05:31:50;16.02;;;12.45;;
48487;SDS011;34289;48.572;13.378;2022-12-31T05:34:16;14.25;;;11.60;;
48487;SDS011;34289;48.572;13.378;2022-12-31T05:36:41;20.25;;;11.90;;
48487;SDS011;34289;48.572;13.378;2022-12-31T05:39:07;17.70;;;12.30;;
48487;SDS011;34289;48.572;13.378;2022-12-31T05:41:33;20.77;;;12.77;;
48487;SDS011;34289;48.572;13.378;2022-12-31T05:43:58;20.10;;;13.75;;
48487;SDS011;34289;48.572;13.378;2022-12-31T05:46:24;18.60;;;14.23;;
48487;SDS011;34289;48.572;13.378;2022-12-31T05:48:49;18.98;;;13.05;;
48487;SDS011;34289;48.572;13.378;2022-12-31T05:51:15;18.10;;;13.73;;
48487;SDS011;34289;48.572;13.378;2022-12-31T05:53:40;16.10;;;13.77;;
48487;SDS011;34289;48.572;13.378;2022-12-31T05:56:06;15.10;;;12.80;;
48487;SDS011;34289;48.572;13.378;2022-12-31T05:58:32;16.08;;;12.60;;
48487;SDS011;34289;48.572;13.378;2022-12-31T06:00:57;15.00;;;12.25;;
48487;SDS011;34289;48.572;13.378;2022-12-31T06:03:23;15.85;;;11.88;;
48487;SDS011;34289;48.572;13.378;2022-12-31T06:05:48;14.60;;;11.82;;
48487;SDS011;34289;48.572;13.378;2022-12-31T06:08:14;15.45;;;11.18;;
48487;SDS011;34289;48.572;13.378;2022-12-31T06:10:39;19.98;;;13.48;;
48487;SDS011;34289;48.572;13.378;2022-12-31T06:13:05;20.77;;;14.07;;
48487;SDS011;34289;48.572;13.378;2022-12-31T06:15:31;19.08;;;13.50;;
48487;SDS011;34289;48.572;13.378;2022-12-31T06:17:56;21.55;;;13.05;;
48487;SDS011;34289;48.572;13.378;2022-12-31T06:20:22;19.63;;;12.75;;
48487;SDS011;34289;48.572;13.378;2022-12-31T06:22:48;18.85;;;13.63;;
48487;SDS011;34289;48.572;13.378;2022-12-31T06:25:14;21.35;;;13.50;;
48487;SDS011;34289;48.572;13.378;2022-12-31T06:27:39;12.60;;;11.10;;
48487;SDS011;34289;48.572;13.378;2022-12-31T06:30:05;19.73;;;11.68;;
48487;SDS011;34289;48.572;13.378;2022-12-31T06:32:31;16.48;;;10.70;;
48487;SDS011;34289;48.572;13.378;2022-12-31T06:34:58;15.02;;;11.55;;
48487;SDS011;34289;48.572;13.378;2022-12-31T06:37:24;15.48;;;10.43;;
48487;SDS011;34289;48.572;13.378;2022-12-31T06:39:50;17.83;;;12.60;;
48487;SDS011;34289;48.572;13.378;2022-12-31T06:42:15;13.00;;;10.82;;
48487;SDS011;34289;48.572;13.378;2022-12-31T06:44:41;18.45;;;13.07;;
48487;SDS011;34289;48.572;13.378;2022-12-31T06:47:06;14.15;;;12.27;;
48487;SDS011;34289;48.572;13.378;2022-12-31T06:49:32;15.27;;;12.63;;
48487;SDS011;34289;48.572;13.378;2022-12-31T06:51:57;17.65;;;12.65;;
48487;SDS011;34289;48.572;13.378;2022-12-31T06:54:23;20.50;;;14.95;;
48487;SDS011;34289;48.572;13.378;2022-12-31T06:56:49;19.73;;;15.98;;
48487;SDS011;34289;48.572;13.378;2022-12-31T06:59:22;18.05;;;13.70;;
48487;SDS011;34289;48.572;13.378;2022-12-31T07:07:23;12.95;;;10.45;;
48487;SDS011;34289;48.572;13.378;2022-12-31T07:20:45;16.83;;;13.57;;
48487;SDS011;34289;48.572;13.378;2022-12-31T07:23:11;16.15;;;12.88;;
48487;SDS011;34289;48.572;13.378;2022-12-31T07:25:37;21.02;;;14.70;;
48487;SDS011;34289;48.572;13.378;2022-12-31T07:34:18;16.10;;;13.57;;
48487;SDS011;34289;48.572;13.378;2022-12-31T07:39:50;18.05;;;14.52;;
48487;SDS011;34289;48.572;13.378;2022-12-31T07:42:38;21.60;;;14.30;;
48487;SDS011;34289;48.572;13.378;2022-12-31T07:45:17;22.70;;;15.82;;
48487;SDS011;34289;48.572;13.378;2022-12-31T07:47:48;27.35;;;16.63;;
48487;SDS011;34289;48.572;13.378;2022-12-31T07:50:15;21.65;;;15.90;;
48487;SDS011;34289;48.572;13.378;2022-12-31T07:52:42;21.58;;;16.70;;
48487;SDS011;34289;48.572;13.378;2022-12-31T07:55:09;21.13;;;15.98;;
48487;SDS011;34289;48.572;13.378;2022-12-31T07:57:46;22.20;;;15.73;;
48487;SDS011;34289;48.572;13.378;2022-12-31T08:00:44;21.85;;;14.95;;
48487;SDS011;34289;48.572;13.378;2022-12-31T08:14:22;24.88;;;16.27;;
48487;SDS011;34289;48.572;13.378;2022-12-31T08:16:49;27.45;;;18.02;;
48487;SDS011;34289;48.572;13.378;2022-12-31T08:19:19;28.20;;;17.40;;
48487;SDS011;34289;48.572;13.378;2022-12-31T08:21:50;23.85;;;17.70;;
48487;SDS011;34289;48.572;13.378;2022-12-31T08:25:02;28.90;;;19.23;;
48487;SDS011;34289;48.572;13.378;2022-12-31T08:30:52;24.10;;;18.15;;
48487;SDS011;34289;48.572;13.378;2022-12-31T08:38:33;26.25;;;17.77;;
48487;SDS011;34289;48.572;13.378;2022-12-31T08:41:20;27.08;;;18.58;;
48487;SDS011;34289;48.572;13.378;2022-12-31T08:49:01;73.50;;;41.13;;
48487;SDS011;34289;48.572;13.378;2022-12-31T08:51:27;51.83;;;30.10;;
48487;SDS011;34289;48.572;13.378;2022-12-31T08:53:53;72.78;;;38.65;;
48487;SDS011;34289;48.572;13.378;2022-12-31T08:56:26;46.60;;;28.73;;
48487;SDS011;34289;48.572;13.378;2022-12-31T09:04:44;24.00;;;16.40;;
48487;SDS011;34289;48.572;13.378;2022-12-31T09:07:18;23.48;;;16.88;;
48487;SDS011;34289;48.572;13.378;2022-12-31T09:12:34;24.90;;;19.02;;
48487;SDS011;34289;48.572;13.378;2022-12-31T09:15:29;24.40;;;18.23;;
48487;SDS011;34289;48.572;13.378;2022-12-31T09:18:08;28.90;;;18.02;;
48487;SDS011;34289;48.572;13.378;2022-12-31T09:20:35;24.98;;;18.30;;
48487;SDS011;34289;48.572;13.378;2022-12-31T09:23:01;25.08;;;18.55;;
48487;SDS011;34289;48.572;13.378;2022-12-31T09:25:28;26.42;;;19.75;;
48487;SDS011;34289;48.572;13.378;2022-12-31T09:28:37;27.48;;;19.92;;
48487;SDS011;34289;48.572;13.378;2022-12-31T09:31:02;26.27;;;18.23;;
48487;SDS011;34289;48.572;13.378;2022-12-31T09:36:45;25.15;;;18.92;;
48487;SDS011;34289;48.572;13.378;2022-12-31T09:50:31;26.45;;;17.90;;
48487;SDS011;34289;48.572;13.378;2022-12-31T10:09:47;11.43;;;10.23;;
48487;SDS011;34289;48.572;13.378;2022-12-31T10:18:51;16.10;;;11.90;;
48487;SDS011;34289;48.572;13.378;2022-12-31T10:27:31;19.83;;;13.50;;
48487;SDS011;34289;48.572;13.378;2022-12-31T10:30:22;18.70;;;13.32;;
48487;SDS011;34289;48.572;13.378;2022-12-31T10:33:04;16.52;;;14.25;;
48487;SDS011;34289;48.572;13.378;2022-12-31T10:35:39;19.02;;;14.95;;
48487;SDS011;34289;48.572;13.378;2022-12-31T10:38:17;17.38;;;13.50;;
48487;SDS011;34289;48.572;13.378;2022-12-31T11:00:21;17.52;;;12.98;;
48487;SDS011;34289;48.572;13.378;2022-12-31T11:05:48;16.25;;;13.55;;
48487;SDS011;34289;48.572;13.378;2022-12-31T11:19:35;18.02;;;13.85;;
48487;SDS011;34289;48.572;13.378;2022-12-31T11:22:39;17.40;;;13.30;;
48487;SDS011;34289;48.572;13.378;2022-12-31T11:25:28;19.83;;;13.45;;
48487;SDS011;34289;48.572;13.378;2022-12-31T11:30:26;20.83;;;13.57;;
48487;SDS011;34289;48.572;13.378;2022-12-31T11:38:20;19.38;;;13.43;;
48487;SDS011;34289;48.572;13.378;2022-12-31T11:43:45;16.67;;;13.60;;
48487;SDS011;34289;48.572;13.378;2022-12-31T11:48:53;16.73;;;14.25;;
48487;SDS011;34289;48.572;13.378;2022-12-31T11:51:27;18.02;;;14.43;;
48487;SDS011;34289;48.572;13.378;2022-12-31T11:57:21;18.33;;;13.38;;
48487;SDS011;34289;48.572;13.378;2022-12-31T11:59:54;16.38;;;12.85;;
48487;SDS011;34289;48.572;13.378;2022-12-31T12:02:29;17.73;;;13.95;;
48487;SDS011;34289;48.572;13.378;2022-12-31T12:04:59;19.80;;;14.07;;
48487;SDS011;34289;48.572;13.378;2022-12-31T12:07:26;16.85;;;13.85;;
48487;SDS011;34289;48.572;13.378;2022-12-31T12:09:54;16.00;;;13.45;;
48487;SDS011;34289;48.572;13.378;2022-12-31T12:12:20;18.27;;;14.00;;
48487;SDS011;34289;48.572;13.378;2022-12-31T12:14:51;17.27;;;14.18;;
48487;SDS011;34289;48.572;13.378;2022-12-31T12:17:28;16.40;;;12.73;;
48487;SDS011;34289;48.572;13.378;2022-12-31T12:19:59;18.83;;;14.60;;
48487;SDS011;34289;48.572;13.378;2022-12-31T12:22:27;18.55;;;13.90;;
48487;SDS011;34289;48.572;13.378;2022-12-31T12:24:56;18.77;;;13.57;;
48487;SDS011;34289;48.572;13.378;2022-12-31T12:27:27;20.27;;;15.27;;
48487;SDS011;34289;48.572;13.378;2022-12-31T12:29:54;25.08;;;16.85;;
48487;SDS011;34289;48.572;13.378;2022-12-31T12:32:20;21.45;;;16.63;;
48487;SDS011;34289;48.572;13.378;2022-12-31T12:34:49;20.48;;;17.10;;
48487;SDS011;34289;48.572;13.378;2022-12-31T12:37:36;19.75;;;15.05;;
48487;SDS011;34289;48.572;13.378;2022-12-31T12:40:06;24.88;;;17.48;;
48487;SDS011;34289;48.572;13.378;2022-12-31T12:42:47;22.42;;;16.38;;
48487;SDS011;34289;48.572;13.378;2022-12-31T12:45:15;18.90;;;14.23;;
48487;SDS011;34289;48.572;13.378;2022-12-31T12:47:41;19.85;;;14.55;;
48487;SDS011;34289;48.572;13.378;2022-12-31T12:50:31;20.63;;;15.23;;
48487;SDS011;34289;48.572;13.378;2022-12-31T13:04:17;19.00;;;14.52;;
48487;SDS011;34289;48.572;13.378;2022-12-31T13:12:03;19.65;;;15.60;;
48487;SDS011;34289;48.572;13.378;2022-12-31T13:14:57;21.08;;;15.05;;
48487;SDS011;34289;48.572;13.378;2022-12-31T13:21:18;16.55;;;14.63;;
48487;SDS011;34289;48.572;13.378;2022-12-31T13:23:22;19.48;;;14.27;;
48487;SDS011;34289;48.572;13.378;2022-12-31T13:28:28;22.20;;;14.45;;
48487;SDS011;34289;48.572;13.378;2022-12-31T13:31:16;19.58;;;15.10;;
48487;SDS011;34289;48.572;13.378;2022-12-31T13:33:47;16.52;;;13.70;;
48487;SDS011;34289;48.572;13.378;2022-12-31T13:36:34;24.33;;;16.67;;
48487;SDS011;34289;48.572;13.378;2022-12-31T13:39:04;20.65;;;15.95;;
48487;SDS011;34289;48.572;13.378;2022-12-31T13:41:45;18.95;;;15.27;;
48487;SDS011;34289;48.572;13.378;2022-12-31T13:47:02;16.33;;;13.73;;
48487;SDS011;34289;48.572;13.378;2022-12-31T13:49:43;21.02;;;15.10;;
48487;SDS011;34289;48.572;13.378;2022-12-31T13:55:18;33.97;;;17.48;;
48487;SDS011;34289;48.572;13.378;2022-12-31T14:00:18;27.45;;;16.50;;
48487;SDS011;34289;48.572;13.378;2022-12-31T14:05:33;18.13;;;13.13;;
48487;SDS011;34289;48.572;13.378;2022-12-31T14:08:11;16.40;;;12.73;;
48487;SDS011;34289;48.572;13.378;2022-12-31T14:19:40;23.58;;;14.48;;
48487;SDS011;34289;48.572;13.378;2022-12-31T14:22:28;15.10;;;11.48;;
48487;SDS011;34289;48.572;13.378;2022-12-31T14:25:14;14.60;;;11.02;;
48487;SDS011;34289;48.572;13.378;2022-12-31T14:27:46;10.52;;;9.38;;
48487;SDS011;34289;48.572;13.378;2022-12-31T14:30:20;13.98;;;10.48;;
48487;SDS011;34289;48.572;13.378;2022-12-31T14:46:42;17.40;;;14.00;;
48487;SDS011;34289;48.572;13.378;2022-12-31T14:49:54;15.75;;;12.65;;
48487;SDS011;34289;48.572;13.378;2022-12-31T14:52:33;13.23;;;10.52;;
48487;SDS011;34289;48.572;13.378;2022-12-31T14:57:40;14.10;;;10.20;;
48487;SDS011;34289;48.572;13.378;2022-12-31T15:02:51;14.18;;;10.73;;
48487;SDS011;34289;48.572;13.378;2022-12-31T15:05:21;20.55;;;10.57;;
48487;SDS011;34289;48.572;13.378;2022-12-31T15:28:07;21.80;;;14.13;;
48487;SDS011;34289;48.572;13.378;2022-12-31T15:30:49;14.30;;;12.35;;
48487;SDS011;34289;48.572;13.378;2022-12-31T15:33:35;103.80;;;15.40;;
48487;SDS011;34289;48.572;13.378;2022-12-31T15:36:14;16.85;;;12.73;;
48487;SDS011;34289;48.572;13.378;2022-12-31T15:38:42;14.35;;;11.23;;
48487;SDS011;34289;48.572;13.378;2022-12-31T15:46:55;77.60;;;26.92;;
48487;SDS011;34289;48.572;13.378;2022-12-31T15:49:35;52.05;;;25.95;;
48487;SDS011;34289;48.572;13.378;2022-12-31T15:52:07;113.32;;;35.55;;
48487;SDS011;34289;48.572;13.378;2022-12-31T15:54:53;107.40;;;24.77;;
48487;SDS011;34289;48.572;13.378;2022-12-31T16:00:07;104.75;;;23.70;;
48487;SDS011;34289;48.572;13.378;2022-12-31T16:02:41;137.73;;;22.55;;
48487;SDS011;34289;48.572;13.378;2022-12-31T16:05:23;58.83;;;19.70;;
48487;SDS011;34289;48.572;13.378;2022-12-31T16:07:53;254.55;;;20.15;;
48487;SDS011;34289;48.572;13.378;2022-12-31T16:10:23;163.07;;;17.48;;
48487;SDS011;34289;48.572;13.378;2022-12-31T16:12:52;94.95;;;14.82;;
48487;SDS011;34289;48.572;13.378;2022-12-31T16:15:19;141.82;;;16.80;;
48487;SDS011;34289;48.572;13.378;2022-12-31T16:17:56;139.02;;;14.60;;
48487;SDS011;34289;48.572;13.378;2022-12-31T16:20:24;45.42;;;10.98;;
48487;SDS011;34289;48.572;13.378;2022-12-31T16:22:54;52.00;;;12.30;;
48487;SDS011;34289;48.572;13.378;2022-12-31T16:25:24;111.25;;;13.07;;
48487;SDS011;34289;48.572;13.378;2022-12-31T16:27:51;103.43;;;12.73;;
48487;SDS011;34289;48.572;13.378;2022-12-31T16:30:19;195.13;;;15.95;;
48487;SDS011;34289;48.572;13.378;2022-12-31T16:32:45;113.70;;;11.65;;
48487;SDS011;34289;48.572;13.378;2022-12-31T16:35:32;84.40;;;12.27;;
48487;SDS011;34289;48.572;13.378;2022-12-31T16:40:37;83.03;;;10.88;;
48487;SDS011;34289;48.572;13.378;2022-12-31T16:43:14;58.13;;;9.90;;
48487;SDS011;34289;48.572;13.378;2022-12-31T16:45:47;35.30;;;10.82;;
48487;SDS011;34289;48.572;13.378;2022-12-31T16:48:14;32.83;;;10.57;;
48487;SDS011;34289;48.572;13.378;2022-12-31T16:50:42;113.65;;;13.00;;
48487;SDS011;34289;48.572;13.378;2022-12-31T16:53:10;63.40;;;12.05;;
48487;SDS011;34289;48.572;13.378;2022-12-31T16:55:38;24.00;;;11.15;;
48487;SDS011;34289;48.572;13.378;2022-12-31T16:58:09;41.17;;;10.27;;
48487;SDS011;34289;48.572;13.378;2022-12-31T17:01:07;49.57;;;10.93;;
48487;SDS011;34289;48.572;13.378;2022-12-31T17:03:47;59.83;;;10.63;;
48487;SDS011;34289;48.572;13.378;2022-12-31T17:06:20;43.88;;;10.65;;
48487;SDS011;34289;48.572;13.378;2022-12-31T17:08:48;100.03;;;11.20;;
48487;SDS011;34289;48.572;13.378;2022-12-31T17:16:32;78.80;;;12.60;;
48487;SDS011;34289;48.572;13.378;2022-12-31T17:19:00;51.53;;;10.45;;
48487;SDS011;34289;48.572;13.378;2022-12-31T17:21:27;50.80;;;10.18;;
48487;SDS011;34289;48.572;13.378;2022-12-31T17:24:00;60.13;;;9.98;;
48487;SDS011;34289;48.572;13.378;2022-12-31T17:26:30;35.97;;;9.60;;
48487;SDS011;34289;48.572;13.378;2022-12-31T17:28:58;34.90;;;10.07;;
48487;SDS011;34289;48.572;13.378;2022-12-31T17:34:09;36.85;;;8.65;;
48487;SDS011;34289;48.572;13.378;2022-12-31T17:36:55;10.05;;;6.97;;
48487;SDS011;34289;48.572;13.378;2022-12-31T17:39:26;11.65;;;7.90;;
48487;SDS011;34289;48.572;13.378;2022-12-31T17:42:06;45.85;;;9.40;;
48487;SDS011;34289;48.572;13.378;2022-12-31T17:44:34;26.52;;;10.52;;
48487;SDS011;34289;48.572;13.378;2022-12-31T17:47:03;27.83;;;10.43;;
48487;SDS011;34289;48.572;13.378;2022-12-31T17:49:30;34.33;;;12.02;;
48487;SDS011;34289;48.572;13.378;2022-12-31T17:51:56;73.63;;;14.18;;
48487;SDS011;34289;48.572;13.378;2022-12-31T17:54:21;40.42;;;12.38;;
48487;SDS011;34289;48.572;13.378;2022-12-31T17:56:47;47.22;;;13.10;;
48487;SDS011;34289;48.572;13.378;2022-12-31T17:59:17;77.35;;;15.85;;
48487;SDS011;34289;48.572;13.378;2022-12-31T18:01:49;54.70;;;15.60;;
48487;SDS011;34289;48.572;13.378;2022-12-31T18:04:16;47.95;;;15.07;;
48487;SDS011;34289;48.572;13.378;2022-12-31T18:06:42;84.97;;;15.75;;
48487;SDS011;34289;48.572;13.378;2022-12-31T18:09:08;113.72;;;14.70;;
48487;SDS011;34289;48.572;13.378;2022-12-31T18:11:35;105.13;;;15.07;;
48487;SDS011;34289;48.572;13.378;2022-12-31T18:14:02;56.97;;;12.82;;
48487;SDS011;34289;48.572;13.378;2022-12-31T18:16:30;75.95;;;12.77;;
48487;SDS011;34289;48.572;13.378;2022-12-31T18:18:56;112.70;;;14.10;;
48487;SDS011;34289;48.572;13.378;2022-12-31T18:21:28;77.63;;;13.20;;
48487;SDS011;34289;48.572;13.378;2022-12-31T18:23:58;46.60;;;10.70;;
48487;SDS011;34289;48.572;13.378;2022-12-31T18:26:26;55.55;;;9.90;;
48487;SDS011;34289;48.572;13.378;2022-12-31T18:28:52;50.50;;;10.70;;
48487;SDS011;34289;48.572;13.378;2022-12-31T18:31:22;60.25;;;11.73;;
48487;SDS011;34289;48.572;13.378;2022-12-31T18:33:51;69.53;;;11.07;;
48487;SDS011;34289;48.572;13.378;2022-12-31T18:36:18;43.33;;;9.95;;
48487;SDS011;34289;48.572;13.378;2022-12-31T18:38:44;29.83;;;10.73;;
48487;SDS011;34289;48.572;13.378;2022-12-31T18:41:14;64.22;;;12.75;;
48487;SDS011;34289;48.572;13.378;2022-12-31T18:43:41;56.80;;;10.77;;
48487;SDS011;34289;48.572;13.378;2022-12-31T18:46:09;96.45;;;9.82;;
48487;SDS011;34289;48.572;13.378;2022-12-31T18:48:39;44.28;;;10.50;;
48487;SDS011;34289;48.572;13.378;2022-12-31T18:51:06;56.47;;;9.63;;
48487;SDS011;34289;48.572;13.378;2022-12-31T18:56:04;44.95;;;10.63;;
48487;SDS011;34289;48.572;13.378;2022-12-31T18:58:29;63.55;;;13.82;;
48487;SDS011;34289;48.572;13.378;2022-12-31T19:00:55;43.90;;;10.73;;
48487;SDS011;34289;48.572;13.378;2022-12-31T19:03:22;74.45;;;10.32;;
48487;SDS011;34289;48.572;13.378;2022-12-31T19:05:51;29.75;;;9.25;;
48487;SDS011;34289;48.572;13.378;2022-12-31T19:08:17;48.78;;;9.93;;
48487;SDS011;34289;48.572;13.378;2022-12-31T19:10:44;50.30;;;11.38;;
48487;SDS011;34289;48.572;13.378;2022-12-31T19:13:11;27.27;;;10.10;;
48487;SDS011;34289;48.572;13.378;2022-12-31T19:15:48;24.58;;;9.80;;
48487;SDS011;34289;48.572;13.378;2022-12-31T19:18:19;60.58;;;17.38;;